Time,TemperatureF,DewpointF,PressureIn,WindDirection,WindDirectionDegrees,WindSpeedMPH,WindSpeedGustMPH,Humidity,HourlyPrecipIn,Conditions,Clouds,dailyrainin,SoftwareType,DateUTC
2013-02-19 00:00:00,39.5,24.2,30.13,South,182,4.0,4.0,54,0.00,,SKC,0.01,VWS V14.01,2013-02-19 05:00:00,
2013-02-19 00:05:00,39.6,24.3,30.13,SW,219,12.0,12.0,54,0.00,,SKC,0.00,VWS V14.01,2013-02-19 05:05:00,
2013-02-19 00:10:00,39.7,24.4,30.13,SSE,150,0.0,1.0,54,0.00,,SKC,0.00,VWS V14.01,2013-02-19 05:10:00,
2013-02-19 00:15:00,39.2,24.4,30.13,East,84,6.0,6.0,55,0.00,,SKC,0.00,VWS V14.01,2013-02-19 05:15:00,
2013-02-19 00:20:00,39.3,24.1,30.12,SSW,192,1.0,5.0,54,0.00,,SKC,0.00,VWS V14.01,2013-02-19 05:20:00,
2013-02-19 00:25:00,39.5,24.2,30.12,West,264,0.0,0.0,54,0.00,,SKC,0.00,VWS V14.01,2013-02-19 05:25:00,
2013-02-19 00:30:00,39.6,23.9,30.12,North,360,1.0,1.0,53,0.00,,SKC,0.00,VWS V14.01,2013-02-19 05:30:00,
2013-02-19 00:35:00,39.7,24.0,30.12,North,360,2.0,4.0,53,0.00,,SKC,0.00,VWS V14.01,2013-02-19 05:35:00,
2013-02-19 00:40:00,39.7,24.0,30.12,West,263,0.0,0.0,53,0.00,,SKC,0.00,VWS V14.01,2013-02-19 05:40:00,
2013-02-19 00:45:00,39.6,23.9,30.11,SSW,203,0.0,0.0,53,0.00,,SKC,0.00,VWS V14.01,2013-02-19 05:45:00,
2013-02-19 00:50:00,39.5,24.2,30.11,SSW,194,4.0,4.0,54,0.00,,SKC,0.00,VWS V14.01,2013-02-19 05:50:00,
2013-02-19 00:55:00,39.4,23.7,30.11,ESE,109,2.0,7.0,53,0.00,,SKC,0.00,VWS V14.01,2013-02-19 05:55:00,
2013-02-19 01:00:00,39.7,24.0,30.10,WNW,300,0.0,0.0,53,0.00,,SKC,0.00,VWS V14.01,2013-02-19 06:00:00,
2013-02-19 01:05:00,39.8,23.6,30.10,South,188,2.0,2.0,52,0.00,,SKC,0.00,VWS V14.01,2013-02-19 06:05:00,
2013-02-19 01:10:00,39.8,24.1,30.09,WNW,299,6.0,6.0,53,0.00,,SKC,0.00,VWS V14.01,2013-02-19 06:10:00,
2013-02-19 01:15:00,39.8,23.2,30.09,ESE,118,3.0,4.0,51,0.00,,SKC,0.00,VWS V14.01,2013-02-19 06:15:00,
2013-02-19 01:20:00,39.7,22.6,30.08,SSW,196,3.0,3.0,50,0.00,,SKC,0.00,VWS V14.01,2013-02-19 06:20:00,
2013-02-19 01:25:00,40.2,22.1,30.07,NE,40,0.0,0.0,48,0.00,,SKC,0.00,VWS V14.01,2013-02-19 06:25:00,
2013-02-19 01:30:00,40.3,22.2,30.06,ESE,113,9.0,13.0,48,0.00,,SKC,0.00,VWS V14.01,2013-02-19 06:30:00,
2013-02-19 01:35:00,40.4,21.8,30.07,ESE,103,0.0,1.0,47,0.00,,SKC,0.00,VWS V14.01,2013-02-19 06:35:00,
2013-02-19 01:40:00,40.3,22.2,30.05,ESE,118,1.0,3.0,48,0.00,,SKC,0.00,VWS V14.01,2013-02-19 06:40:00,
2013-02-19 01:45:00,40.0,21.4,30.05,NE,34,3.0,3.0,47,0.00,,SKC,0.00,VWS V14.01,2013-02-19 06:45:00,
2013-02-19 01:50:00,40.1,21.0,30.05,ENE,61,2.0,2.0,46,0.00,,SKC,0.00,VWS V14.01,2013-02-19 06:50:00,
2013-02-19 01:55:00,40.2,21.6,30.05,ESE,121,2.0,5.0,47,0.00,,SKC,0.00,VWS V14.01,2013-02-19 06:55:00,
2013-02-19 02:00:00,40.2,21.6,30.05,East,86,7.0,7.0,47,0.00,,SKC,0.00,VWS V14.01,2013-02-19 07:00:00,
2013-02-19 02:05:00,40.5,22.9,30.05,SSE,150,3.0,6.0,49,0.00,,SKC,0.00,VWS V14.01,2013-02-19 07:05:00,
2013-02-19 02:10:00,41.1,24.8,30.04,West,267,4.0,12.0,52,0.00,,SKC,0.00,VWS V14.01,2013-02-19 07:10:00,
2013-02-19 02:15:00,41.5,25.2,30.04,WNW,298,0.0,2.0,52,0.00,,SKC,0.00,VWS V14.01,2013-02-19 07:15:00,
2013-02-19 02:20:00,41.5,25.7,30.03,ESE,111,1.0,2.0,53,0.00,,SKC,0.00,VWS V14.01,2013-02-19 07:20:00,
2013-02-19 02:25:00,41.7,25.9,30.02,ESE,103,7.0,7.0,53,0.00,,SKC,0.00,VWS V14.01,2013-02-19 07:25:00,
2013-02-19 02:30:00,41.9,26.5,30.02,SSW,197,10.0,12.0,54,0.00,,SKC,0.00,VWS V14.01,2013-02-19 07:30:00,
2013-02-19 02:35:00,42.0,26.1,30.01,NE,44,2.0,5.0,53,0.00,,SKC,0.00,VWS V14.01,2013-02-19 07:35:00,
2013-02-19 02:40:00,42.0,26.1,30.02,ESE,121,3.0,7.0,53,0.00,,SKC,0.00,VWS V14.01,2013-02-19 07:40:00,
2013-02-19 02:45:00,42.1,26.7,30.01,SSW,192,7.0,7.0,54,0.00,,SKC,0.00,VWS V14.01,2013-02-19 07:45:00,
2013-02-19 02:50:00,42.1,27.1,30.01,SE,127,2.0,6.0,55,0.00,,SKC,0.00,VWS V14.01,2013-02-19 07:50:00,
2013-02-19 02:55:00,42.4,27.4,30.01,South,178,6.0,9.0,55,0.00,,SKC,0.00,VWS V14.01,2013-02-19 07:55:00,
2013-02-19 03:00:00,42.5,27.5,30.01,WSW,254,0.0,6.0,55,0.00,,SKC,0.00,VWS V14.01,2013-02-19 08:00:00,
2013-02-19 03:05:00,42.6,27.1,30.02,North,11,15.0,15.0,54,0.00,,SKC,0.00,VWS V14.01,2013-02-19 08:05:00,
2013-02-19 03:10:00,42.7,27.7,30.02,SE,141,2.0,8.0,55,0.00,,SKC,0.00,VWS V14.01,2013-02-19 08:10:00,
2013-02-19 03:15:00,42.6,27.1,30.03,ESE,116,2.0,2.0,54,0.00,,SKC,0.00,VWS V14.01,2013-02-19 08:15:00,
2013-02-19 03:20:00,41.8,29.4,30.03,WNW,295,5.0,7.0,61,0.00,,SKC,0.00,VWS V14.01,2013-02-19 08:20:00,
2013-02-19 03:25:00,40.2,29.8,30.04,SSE,150,6.0,11.0,66,0.00,,SKC,0.00,VWS V14.01,2013-02-19 08:25:00,
2013-02-19 03:30:00,39.1,29.8,30.04,ESE,115,5.0,8.0,69,0.00,,SKC,0.00,VWS V14.01,2013-02-19 08:30:00,
2013-02-19 03:35:00,38.0,30.1,30.04,ENE,57,2.0,11.0,73,0.00,,SKC,0.00,VWS V14.01,2013-02-19 08:35:00,
2013-02-19 03:40:00,37.2,30.0,30.04,ESE,111,4.0,4.0,75,0.00,,SKC,0.00,VWS V14.01,2013-02-19 08:40:00,
2013-02-19 03:45:00,36.4,30.2,30.04,ESE,119,5.0,5.0,78,0.00,,SKC,0.00,VWS V14.01,2013-02-19 08:45:00,
2013-02-19 03:49:00,35.7,30.1,30.03,ENE,60,10.0,10.0,80,0.00,,SKC,0.00,VWS V14.01,2013-02-19 08:49:00,
2013-02-19 03:54:00,35.3,30.4,30.03,SSW,207,9.0,11.0,82,0.00,,SKC,0.00,VWS V14.01,2013-02-19 08:54:00,
2013-02-19 03:59:00,34.9,30.3,30.03,SSE,148,3.0,4.0,83,0.00,,SKC,0.00,VWS V14.01,2013-02-19 08:59:00,
2013-02-19 04:04:00,34.4,30.4,30.02,ESE,105,0.0,3.0,85,0.00,,SKC,0.00,VWS V14.01,2013-02-19 09:04:00,
2013-02-19 04:09:00,34.4,30.6,30.02,East,89,3.0,6.0,86,0.00,,SKC,0.00,VWS V14.01,2013-02-19 09:09:00,
2013-02-19 04:14:00,34.3,30.6,30.02,South,181,3.0,7.0,86,0.01,,SKC,0.01,VWS V14.01,2013-02-19 09:14:00,
2013-02-19 04:19:00,34.3,30.8,30.02,SSE,149,2.0,4.0,87,0.01,,SKC,0.01,VWS V14.01,2013-02-19 09:19:00,
2013-02-19 04:24:00,34.3,30.8,30.02,NNW,333,1.0,1.0,87,0.01,,SKC,0.01,VWS V14.01,2013-02-19 09:24:00,
2013-02-19 04:29:00,34.1,30.6,30.02,ESE,107,3.0,3.0,87,0.01,,SKC,0.01,VWS V14.01,2013-02-19 09:29:00,
2013-02-19 04:34:00,33.9,30.7,30.02,East,101,3.0,5.0,88,0.01,,SKC,0.01,VWS V14.01,2013-02-19 09:34:00,
2013-02-19 04:39:00,33.8,30.6,30.03,East,100,3.0,5.0,88,0.01,,SKC,0.01,VWS V14.01,2013-02-19 09:39:00,
2013-02-19 04:44:00,33.8,30.6,30.03,ENE,73,4.0,4.0,88,0.01,,SKC,0.01,VWS V14.01,2013-02-19 09:44:00,
2013-02-19 04:49:00,33.8,30.6,30.03,ENE,75,3.0,4.0,88,0.02,,SKC,0.02,VWS V14.01,2013-02-19 09:49:00,
2013-02-19 04:54:00,33.7,30.5,30.03,ENE,63,3.0,3.0,88,0.02,,SKC,0.02,VWS V14.01,2013-02-19 09:54:00,
2013-02-19 04:59:00,33.6,30.7,30.04,ESE,119,5.0,5.0,89,0.02,,SKC,0.02,VWS V14.01,2013-02-19 09:59:00,
2013-02-19 05:04:00,33.6,30.7,30.05,South,186,1.0,1.0,89,0.02,,SKC,0.02,VWS V14.01,2013-02-19 10:04:00,
2013-02-19 05:09:00,33.5,30.6,30.04,NE,49,2.0,5.0,89,0.02,,SKC,0.02,VWS V14.01,2013-02-19 10:09:00,
2013-02-19 05:14:00,33.4,30.5,30.03,NNE,28,3.0,3.0,89,0.01,,SKC,0.02,VWS V14.01,2013-02-19 10:14:00,
2013-02-19 05:19:00,33.2,30.3,30.03,South,191,1.0,2.0,89,0.01,,SKC,0.02,VWS V14.01,2013-02-19 10:19:00,
2013-02-19 05:24:00,33.1,30.5,30.04,SSE,165,3.0,6.0,90,0.01,,SKC,0.02,VWS V14.01,2013-02-19 10:24:00,
2013-02-19 05:29:00,33.0,30.4,30.03,South,190,4.0,4.0,90,0.01,,SKC,0.02,VWS V14.01,2013-02-19 10:29:00,
2013-02-19 05:34:00,33.0,30.4,30.03,North,360,2.0,2.0,90,0.01,,SKC,0.02,VWS V14.01,2013-02-19 10:34:00,
2013-02-19 05:39:00,33.0,30.4,30.01,East,92,0.0,1.0,90,0.01,,SKC,0.02,VWS V14.01,2013-02-19 10:39:00,
2013-02-19 05:44:00,33.0,30.4,30.01,West,271,2.0,3.0,90,0.01,,SKC,0.02,VWS V14.01,2013-02-19 10:44:00,
2013-02-19 05:49:00,33.0,30.7,30.00,NE,46,2.0,2.0,91,0.00,,SKC,0.02,VWS V14.01,2013-02-19 10:49:00,
2013-02-19 05:54:00,33.0,30.7,30.00,SSE,164,4.0,4.0,91,0.00,,SKC,0.02,VWS V14.01,2013-02-19 10:54:00,
2013-02-19 05:59:00,33.0,30.7,30.00,SW,232,3.0,3.0,91,0.00,,SKC,0.02,VWS V14.01,2013-02-19 10:59:00,
2013-02-19 06:04:00,33.0,30.7,30.01,ENE,68,1.0,1.0,91,0.00,,SKC,0.02,VWS V14.01,2013-02-19 11:04:00,
2013-02-19 06:09:00,32.9,30.6,30.00,South,180,2.0,4.0,91,0.00,,SKC,0.02,VWS V14.01,2013-02-19 11:09:00,
2013-02-19 06:14:00,32.9,30.6,30.00,ESE,111,4.0,4.0,91,0.00,,SKC,0.02,VWS V14.01,2013-02-19 11:14:00,
2013-02-19 06:19:00,33.0,30.7,30.00,SE,128,4.0,4.0,91,0.00,,SKC,0.02,VWS V14.01,2013-02-19 11:19:00,
2013-02-19 06:24:00,33.0,30.7,29.99,SW,220,4.0,5.0,91,0.00,,SKC,0.02,VWS V14.01,2013-02-19 11:24:00,
2013-02-19 06:29:00,33.2,30.9,29.99,ENE,59,3.0,3.0,91,0.00,,SKC,0.02,VWS V14.01,2013-02-19 11:29:00,
2013-02-19 06:34:00,33.2,30.9,29.98,SSW,194,1.0,1.0,91,0.00,,SKC,0.02,VWS V14.01,2013-02-19 11:34:00,
2013-02-19 06:39:00,33.3,31.0,29.98,ENE,72,3.0,3.0,91,0.00,,SKC,0.02,VWS V14.01,2013-02-19 11:39:00,
2013-02-19 06:44:00,33.4,31.1,29.98,ENE,73,3.0,3.0,91,0.00,,SKC,0.02,VWS V14.01,2013-02-19 11:44:00,
2013-02-19 06:49:00,33.6,31.3,29.97,North,360,3.0,3.0,91,0.01,,SKC,0.03,VWS V14.01,2013-02-19 11:49:00,
2013-02-19 06:54:00,34.0,31.6,29.97,NNE,24,3.0,3.0,91,0.01,,SKC,0.03,VWS V14.01,2013-02-19 11:54:00,
2013-02-19 06:59:00,34.3,31.7,29.97,ESE,109,4.0,4.0,90,0.01,,SKC,0.03,VWS V14.01,2013-02-19 11:59:00,
2013-02-19 07:04:00,34.4,31.8,29.98,SSW,193,2.0,3.0,90,0.01,,SKC,0.03,VWS V14.01,2013-02-19 12:04:00,
2013-02-19 07:09:00,34.4,31.8,29.97,ENE,59,4.0,4.0,90,0.01,,SKC,0.03,VWS V14.01,2013-02-19 12:09:00,
2013-02-19 07:14:00,34.4,31.8,29.98,SE,129,1.0,1.0,90,0.01,,SKC,0.03,VWS V14.01,2013-02-19 12:14:00,
2013-02-19 07:19:00,34.4,31.8,29.97,ESE,106,3.0,3.0,90,0.01,,SKC,0.03,VWS V14.01,2013-02-19 12:19:00,
2013-02-19 07:24:00,34.4,31.8,29.97,SW,230,5.0,5.0,90,0.02,,SKC,0.04,VWS V14.01,2013-02-19 12:24:00,
2013-02-19 07:29:00,34.4,31.8,29.96,SE,136,0.0,1.0,90,0.02,,SKC,0.04,VWS V14.01,2013-02-19 12:29:00,
2013-02-19 07:34:00,34.4,31.8,29.96,South,178,4.0,4.0,90,0.03,,SKC,0.05,VWS V14.01,2013-02-19 12:34:00,
2013-02-19 07:39:00,34.5,31.9,29.96,North,355,5.0,5.0,90,0.03,,SKC,0.05,VWS V14.01,2013-02-19 12:39:00,
2013-02-19 07:44:00,34.7,32.1,29.95,ESE,102,3.0,5.0,90,0.04,,SKC,0.06,VWS V14.01,2013-02-19 12:44:00,
2013-02-19 07:49:00,34.8,32.2,29.95,ESE,109,1.0,1.0,90,0.04,,SKC,0.07,VWS V14.01,2013-02-19 12:49:00,
2013-02-19 07:54:00,34.9,32.3,29.95,ENE,76,2.0,2.0,90,0.04,,SKC,0.07,VWS V14.01,2013-02-19 12:54:00,
2013-02-19 07:59:00,35.1,32.5,29.94,ENE,68,4.0,4.0,90,0.05,,SKC,0.08,VWS V14.01,2013-02-19 12:59:00,
2013-02-19 08:04:00,35.3,32.7,29.94,East,99,3.0,3.0,90,0.06,,SKC,0.09,VWS V14.01,2013-02-19 13:04:00,
2013-02-19 08:09:00,35.5,32.6,29.94,ESE,106,4.0,5.0,89,0.06,,SKC,0.09,VWS V14.01,2013-02-19 13:09:00,
2013-02-19 08:14:00,35.6,32.7,29.94,SSE,164,4.0,4.0,89,0.07,,SKC,0.10,VWS V14.01,2013-02-19 13:14:00,
2013-02-19 08:19:00,35.7,32.8,29.94,ESE,121,5.0,5.0,89,0.08,,SKC,0.11,VWS V14.01,2013-02-19 13:19:00,
2013-02-19 08:24:00,35.8,33.2,29.94,ESE,113,3.0,3.0,90,0.07,,SKC,0.11,VWS V14.01,2013-02-19 13:24:00,
2013-02-19 08:29:00,36.0,33.4,29.94,SE,132,3.0,4.0,90,0.08,,SKC,0.12,VWS V14.01,2013-02-19 13:29:00,
2013-02-19 08:34:00,36.1,33.2,29.93,East,83,5.0,5.0,89,0.07,,SKC,0.12,VWS V14.01,2013-02-19 13:34:00,
2013-02-19 08:39:00,36.3,33.4,29.93,East,97,3.0,4.0,89,0.08,,SKC,0.13,VWS V14.01,2013-02-19 13:39:00,
2013-02-19 08:44:00,36.5,33.6,29.93,South,182,4.0,7.0,89,0.07,,SKC,0.13,VWS V14.01,2013-02-19 13:44:00,
2013-02-19 08:49:00,36.7,33.8,29.93,East,87,6.0,8.0,89,0.07,,SKC,0.14,VWS V14.01,2013-02-19 13:49:00,
2013-02-19 08:54:00,37.1,33.9,29.93,ESE,102,3.0,7.0,88,0.07,,SKC,0.14,VWS V14.01,2013-02-19 13:54:00,
2013-02-19 08:59:00,37.3,34.1,29.93,ENE,71,3.0,3.0,88,0.06,,SKC,0.14,VWS V14.01,2013-02-19 13:59:00,
2013-02-19 09:04:00,37.3,34.1,29.93,SE,128,2.0,4.0,88,0.07,,SKC,0.15,VWS V14.01,2013-02-19 14:04:00,
2013-02-19 09:09:00,37.4,34.2,29.93,East,80,2.0,6.0,88,0.06,,SKC,0.15,VWS V14.01,2013-02-19 14:09:00,
2013-02-19 09:14:00,37.6,34.4,29.93,ENE,73,1.0,3.0,88,0.05,,SKC,0.15,VWS V14.01,2013-02-19 14:14:00,
2013-02-19 09:19:00,37.7,34.5,29.93,SE,130,4.0,5.0,88,0.04,,SKC,0.15,VWS V14.01,2013-02-19 14:19:00,
2013-02-19 09:24:00,37.7,34.5,29.93,SSE,150,3.0,3.0,88,0.04,,SKC,0.15,VWS V14.01,2013-02-19 14:24:00,
2013-02-19 09:29:00,37.6,34.4,29.93,ESE,117,5.0,7.0,88,0.04,,SKC,0.16,VWS V14.01,2013-02-19 14:29:00,
2013-02-19 09:34:00,37.7,34.5,29.93,ESE,114,5.0,7.0,88,0.04,,SKC,0.16,VWS V14.01,2013-02-19 14:34:00,
2013-02-19 09:39:00,37.7,34.8,29.93,ESE,103,7.0,10.0,89,0.03,,SKC,0.16,VWS V14.01,2013-02-19 14:39:00,
2013-02-19 09:44:00,37.8,34.9,29.93,NNE,28,2.0,14.0,89,0.03,,SKC,0.16,VWS V14.01,2013-02-19 14:44:00,
2013-02-19 09:49:00,38.0,35.0,29.92,ENE,72,4.0,10.0,89,0.02,,SKC,0.16,VWS V14.01,2013-02-19 14:49:00,
2013-02-19 09:54:00,38.1,34.9,29.93,ESE,119,5.0,5.0,88,0.02,,SKC,0.16,VWS V14.01,2013-02-19 14:54:00,
2013-02-19 09:59:00,38.2,35.0,29.93,ESE,122,8.0,11.0,88,0.02,,SKC,0.16,VWS V14.01,2013-02-19 14:59:00,
2013-02-19 10:04:00,38.3,35.1,29.93,SW,232,5.0,5.0,88,0.01,,SKC,0.16,VWS V14.01,2013-02-19 15:04:00,
2013-02-19 10:09:00,38.3,35.1,29.93,SE,128,7.0,7.0,88,0.01,,SKC,0.16,VWS V14.01,2013-02-19 15:09:00,
2013-02-19 10:14:00,38.4,34.9,29.93,NW,308,3.0,7.0,87,0.01,,SKC,0.16,VWS V14.01,2013-02-19 15:14:00,
2013-02-19 10:19:00,38.6,35.4,29.93,ESE,109,4.0,7.0,88,0.01,,SKC,0.16,VWS V14.01,2013-02-19 15:19:00,
2013-02-19 10:24:00,38.8,35.6,29.93,SW,230,1.0,8.0,88,0.01,,SKC,0.16,VWS V14.01,2013-02-19 15:24:00,
2013-02-19 10:29:00,38.8,35.6,29.93,ENE,76,5.0,5.0,88,0.00,,SKC,0.16,VWS V14.01,2013-02-19 15:29:00,
2013-02-19 10:34:00,38.9,35.7,29.93,NNW,337,3.0,9.0,88,0.00,,SKC,0.16,VWS V14.01,2013-02-19 15:34:00,
2013-02-19 10:39:00,39.0,35.8,29.93,ESE,122,1.0,5.0,88,0.00,,SKC,0.16,VWS V14.01,2013-02-19 15:39:00,
2013-02-19 10:44:00,39.2,36.0,29.94,WSW,238,1.0,2.0,88,0.01,,SKC,0.17,VWS V14.01,2013-02-19 15:44:00,
2013-02-19 10:49:00,39.4,36.2,29.93,SSE,164,3.0,5.0,88,0.01,,SKC,0.17,VWS V14.01,2013-02-19 15:49:00,
2013-02-19 10:54:00,39.6,36.3,29.94,ESE,102,4.0,5.0,88,0.01,,SKC,0.17,VWS V14.01,2013-02-19 15:54:00,
2013-02-19 10:59:00,39.9,36.6,29.93,SSW,199,3.0,4.0,88,0.01,,SKC,0.17,VWS V14.01,2013-02-19 15:59:00,
2013-02-19 11:04:00,40.2,37.2,29.93,SSW,196,8.0,8.0,89,0.01,,SKC,0.17,VWS V14.01,2013-02-19 16:04:00,
2013-02-19 11:09:00,40.4,37.1,29.93,North,355,4.0,6.0,88,0.01,,SKC,0.17,VWS V14.01,2013-02-19 16:09:00,
2013-02-19 11:14:00,41.0,37.7,29.93,SSE,164,0.0,1.0,88,0.01,,SKC,0.17,VWS V14.01,2013-02-19 16:14:00,
2013-02-19 11:19:00,41.5,37.9,29.93,SE,144,4.0,7.0,87,0.01,,SKC,0.17,VWS V14.01,2013-02-19 16:19:00,
2013-02-19 11:24:00,42.1,38.2,29.92,SSW,200,17.0,17.0,86,0.01,,SKC,0.17,VWS V14.01,2013-02-19 16:24:00,
2013-02-19 11:29:00,42.5,38.3,29.92,South,191,11.0,11.0,85,0.01,,SKC,0.17,VWS V14.01,2013-02-19 16:29:00,
2013-02-19 11:34:00,42.9,38.7,29.92,NNE,26,1.0,4.0,85,0.01,,SKC,0.17,VWS V14.01,2013-02-19 16:34:00,
2013-02-19 11:39:00,43.4,38.6,29.92,WSW,249,7.0,7.0,83,0.01,,SKC,0.17,VWS V14.01,2013-02-19 16:39:00,
2013-02-19 11:44:00,43.7,38.9,29.92,South,174,6.0,6.0,83,0.00,,SKC,0.17,VWS V14.01,2013-02-19 16:44:00,
2013-02-19 11:49:00,43.6,38.5,29.92,SE,136,7.0,7.0,82,0.00,,SKC,0.17,VWS V14.01,2013-02-19 16:49:00,
2013-02-19 11:54:00,43.4,38.6,29.91,ESE,123,4.0,5.0,83,0.00,,SKC,0.17,VWS V14.01,2013-02-19 16:54:00,
2013-02-19 11:59:00,43.3,38.8,29.92,ESE,117,1.0,2.0,84,0.00,,SKC,0.17,VWS V14.01,2013-02-19 16:59:00,
2013-02-19 12:04:00,43.6,38.8,29.92,ESE,108,2.0,3.0,83,0.00,,SKC,0.17,VWS V14.01,2013-02-19 17:04:00,
2013-02-19 12:09:00,44.0,38.9,29.92,NNW,341,1.0,4.0,82,0.00,,SKC,0.17,VWS V14.01,2013-02-19 17:09:00,
2013-02-19 12:14:00,44.5,39.0,29.92,SSE,157,7.0,8.0,81,0.00,,SKC,0.17,VWS V14.01,2013-02-19 17:14:00,
2013-02-19 12:18:00,44.8,39.0,29.92,SW,214,3.0,8.0,80,0.00,,SKC,0.17,VWS V14.01,2013-02-19 17:18:00,
2013-02-19 12:23:00,44.5,39.0,29.91,SW,224,4.0,11.0,81,0.00,,SKC,0.17,VWS V14.01,2013-02-19 17:23:00,
2013-02-19 12:28:00,44.7,38.6,29.91,ENE,69,7.0,7.0,79,0.00,,SKC,0.17,VWS V14.01,2013-02-19 17:28:00,
2013-02-19 12:33:00,45.3,38.5,29.91,East,96,2.0,5.0,77,0.00,,SKC,0.17,VWS V14.01,2013-02-19 17:33:00,
2013-02-19 12:38:00,45.3,37.2,29.91,WSW,242,2.0,8.0,73,0.00,,SKC,0.17,VWS V14.01,2013-02-19 17:38:00,
2013-02-19 12:43:00,45.1,37.0,29.90,North,355,4.0,16.0,73,0.00,,SKC,0.17,VWS V14.01,2013-02-19 17:43:00,
2013-02-19 12:48:00,45.6,37.8,29.90,SE,138,5.0,5.0,74,0.00,,SKC,0.17,VWS V14.01,2013-02-19 17:48:00,
2013-02-19 12:53:00,45.7,37.2,29.90,ESE,119,2.0,4.0,72,0.00,,SKC,0.17,VWS V14.01,2013-02-19 17:53:00,
2013-02-19 12:58:00,45.6,37.1,29.89,SSW,202,6.0,18.0,72,0.00,,SKC,0.17,VWS V14.01,2013-02-19 17:58:00,
2013-02-19 13:03:00,46.0,36.8,29.89,SSW,203,8.0,11.0,70,0.00,,SKC,0.17,VWS V14.01,2013-02-19 18:03:00,
2013-02-19 13:08:00,46.2,36.6,29.89,NNE,30,0.0,1.0,69,0.00,,SKC,0.17,VWS V14.01,2013-02-19 18:08:00,
2013-02-19 13:13:00,46.0,35.7,29.89,East,83,6.0,9.0,67,0.00,,SKC,0.17,VWS V14.01,2013-02-19 18:13:00,
2013-02-19 13:18:00,45.8,35.8,29.89,SSE,164,11.0,11.0,68,0.00,,SKC,0.17,VWS V14.01,2013-02-19 18:18:00,
2013-02-19 13:23:00,45.8,34.7,29.89,ESE,116,3.0,4.0,65,0.00,,SKC,0.17,VWS V14.01,2013-02-19 18:23:00,
2013-02-19 13:28:00,46.0,35.3,29.89,NE,34,5.0,6.0,66,0.00,,SKC,0.17,VWS V14.01,2013-02-19 18:28:00,
2013-02-19 13:33:00,46.3,36.0,29.88,ENE,65,4.0,4.0,67,0.00,,SKC,0.17,VWS V14.01,2013-02-19 18:33:00,
2013-02-19 13:38:00,46.5,34.6,29.89,South,169,10.0,10.0,63,0.00,,SKC,0.17,VWS V14.01,2013-02-19 18:38:00,
2013-02-19 13:43:00,46.4,34.5,29.88,ENE,65,2.0,3.0,63,0.00,,SKC,0.17,VWS V14.01,2013-02-19 18:43:00,
2013-02-19 13:48:00,46.7,34.4,29.88,NE,44,5.0,5.0,62,0.00,,SKC,0.17,VWS V14.01,2013-02-19 18:48:00,
2013-02-19 13:53:00,46.7,34.4,29.88,East,95,2.0,5.0,62,0.00,,SKC,0.17,VWS V14.01,2013-02-19 18:53:00,
2013-02-19 13:58:00,47.0,33.4,29.88,SE,142,4.0,4.0,59,0.00,,SKC,0.17,VWS V14.01,2013-02-19 18:58:00,
2013-02-19 14:03:00,46.7,33.2,29.88,South,183,2.0,5.0,59,0.00,,SKC,0.17,VWS V14.01,2013-02-19 19:03:00,
2013-02-19 14:08:00,47.2,34.0,29.88,SSW,196,14.0,14.0,60,0.00,,SKC,0.17,VWS V14.01,2013-02-19 19:08:00,
2013-02-19 14:13:00,47.0,33.8,29.87,NNW,338,5.0,5.0,60,0.00,,SKC,0.17,VWS V14.01,2013-02-19 19:13:00,
2013-02-19 14:18:00,46.9,33.3,29.88,WNW,288,5.0,5.0,59,0.00,,SKC,0.17,VWS V14.01,2013-02-19 19:18:00,
2013-02-19 14:23:00,46.7,32.3,29.87,SSW,201,4.0,9.0,57,0.00,,SKC,0.17,VWS V14.01,2013-02-19 19:23:00,
2013-02-19 14:28:00,46.6,33.0,29.87,ENE,76,4.0,5.0,59,0.00,,SKC,0.17,VWS V14.01,2013-02-19 19:28:00,
2013-02-19 14:33:00,47.3,32.4,29.88,NE,40,5.0,6.0,56,0.00,,SKC,0.17,VWS V14.01,2013-02-19 19:33:00,
2013-02-19 14:38:00,47.6,32.7,29.87,ENE,59,12.0,12.0,56,0.00,,SKC,0.17,VWS V14.01,2013-02-19 19:38:00,
2013-02-19 14:43:00,47.5,31.7,29.87,SW,218,2.0,10.0,54,0.00,,SKC,0.17,VWS V14.01,2013-02-19 19:43:00,
2013-02-19 14:48:00,47.4,33.4,29.87,East,82,3.0,7.0,58,0.00,,SKC,0.17,VWS V14.01,2013-02-19 19:48:00,
2013-02-19 14:53:00,47.5,30.3,29.87,West,273,1.0,7.0,51,0.00,,SKC,0.17,VWS V14.01,2013-02-19 19:53:00,
2013-02-19 14:58:00,47.3,31.0,29.86,NNE,23,6.0,10.0,53,0.00,,SKC,0.17,VWS V14.01,2013-02-19 19:58:00,
2013-02-19 15:03:00,47.1,29.9,29.87,East,92,2.0,7.0,51,0.00,,SKC,0.17,VWS V14.01,2013-02-19 20:03:00,
2013-02-19 15:08:00,47.2,29.0,29.86,WSW,238,1.0,8.0,49,0.00,,SKC,0.17,VWS V14.01,2013-02-19 20:08:00,
2013-02-19 15:13:00,47.1,28.9,29.87,SW,231,10.0,14.0,49,0.00,,SKC,0.17,VWS V14.01,2013-02-19 20:13:00,
2013-02-19 15:18:00,47.1,28.4,29.87,ENE,69,4.0,6.0,48,0.00,,SKC,0.17,VWS V14.01,2013-02-19 20:18:00,
2013-02-19 15:23:00,47.1,26.9,29.88,NE,42,8.0,16.0,45,0.00,,SKC,0.17,VWS V14.01,2013-02-19 20:23:00,
2013-02-19 15:28:00,46.9,28.2,29.88,NE,38,8.0,8.0,48,0.00,,SKC,0.17,VWS V14.01,2013-02-19 20:28:00,
2013-02-19 15:33:00,47.2,28.5,29.87,WNW,288,3.0,17.0,48,0.00,,SKC,0.17,VWS V14.01,2013-02-19 20:33:00,
2013-02-19 15:38:00,47.2,29.0,29.88,NNE,33,5.0,7.0,49,0.00,,SKC,0.17,VWS V14.01,2013-02-19 20:38:00,
2013-02-19 15:43:00,47.0,28.9,29.88,North,5,3.0,8.0,49,0.00,,SKC,0.17,VWS V14.01,2013-02-19 20:43:00,
2013-02-19 15:48:00,46.9,29.7,29.89,WNW,288,4.0,9.0,51,0.00,,SKC,0.17,VWS V14.01,2013-02-19 20:48:00,
2013-02-19 15:53:00,46.9,29.2,29.88,SSW,200,3.0,12.0,50,0.00,,SKC,0.17,VWS V14.01,2013-02-19 20:53:00,
2013-02-19 15:58:00,46.5,29.8,29.89,NNW,345,1.0,13.0,52,0.00,,SKC,0.17,VWS V14.01,2013-02-19 20:58:00,
2013-02-19 16:03:00,46.6,29.9,29.89,South,169,0.0,7.0,52,0.00,,SKC,0.17,VWS V14.01,2013-02-19 21:03:00,
2013-02-19 16:08:00,46.8,30.1,29.89,WNW,299,3.0,4.0,52,0.00,,SKC,0.17,VWS V14.01,2013-02-19 21:08:00,
2013-02-19 16:13:00,46.8,30.6,29.89,North,11,12.0,12.0,53,0.00,,SKC,0.17,VWS V14.01,2013-02-19 21:13:00,
2013-02-19 16:18:00,46.6,29.9,29.89,ESE,105,5.0,8.0,52,0.00,,SKC,0.17,VWS V14.01,2013-02-19 21:18:00,
2013-02-19 16:23:00,46.4,29.3,29.90,WNW,286,3.0,8.0,51,0.00,,SKC,0.17,VWS V14.01,2013-02-19 21:23:00,
2013-02-19 16:28:00,45.9,28.8,29.90,NNE,25,2.0,9.0,51,0.00,,SKC,0.17,VWS V14.01,2013-02-19 21:28:00,
2013-02-19 16:33:00,45.8,27.7,29.90,NNE,28,7.0,11.0,49,0.00,,SKC,0.17,VWS V14.01,2013-02-19 21:33:00,
2013-02-19 16:38:00,46.0,27.9,29.90,NW,309,2.0,2.0,49,0.00,,SKC,0.17,VWS V14.01,2013-02-19 21:38:00,
2013-02-19 16:43:00,46.2,27.1,29.90,NNE,23,4.0,10.0,47,0.00,,SKC,0.17,VWS V14.01,2013-02-19 21:43:00,
2013-02-19 16:48:00,45.7,26.1,29.91,North,5,4.0,5.0,46,0.00,,SKC,0.17,VWS V14.01,2013-02-19 21:48:00,
2013-02-19 16:53:00,45.4,26.4,29.91,NNE,32,8.0,11.0,47,0.00,,SKC,0.17,VWS V14.01,2013-02-19 21:53:00,
2013-02-19 16:58:00,45.0,25.5,29.91,North,355,1.0,9.0,46,0.00,,SKC,0.17,VWS V14.01,2013-02-19 21:58:00,
2013-02-19 17:03:00,45.1,26.1,29.91,South,187,2.0,3.0,47,0.00,,SKC,0.17,VWS V14.01,2013-02-19 22:03:00,
2013-02-19 17:08:00,44.9,25.9,29.92,NE,56,4.0,6.0,47,0.00,,SKC,0.17,VWS V14.01,2013-02-19 22:08:00,
2013-02-19 17:13:00,44.3,25.4,29.92,ENE,65,0.0,3.0,47,0.00,,SKC,0.17,VWS V14.01,2013-02-19 22:13:00,
2013-02-19 17:18:00,44.1,25.2,29.92,North,355,11.0,11.0,47,0.00,,SKC,0.17,VWS V14.01,2013-02-19 22:18:00,
2013-02-19 17:23:00,43.7,23.8,29.92,NNE,24,5.0,16.0,45,0.00,,SKC,0.17,VWS V14.01,2013-02-19 22:23:00,
2013-02-19 17:28:00,43.4,23.5,29.93,NE,42,10.0,10.0,45,0.00,,SKC,0.17,VWS V14.01,2013-02-19 22:28:00,
2013-02-19 17:33:00,43.3,23.4,29.93,ESE,119,3.0,8.0,45,0.00,,SKC,0.17,VWS V14.01,2013-02-19 22:33:00,
2013-02-19 17:38:00,43.1,22.7,29.93,SW,219,8.0,9.0,44,0.00,,SKC,0.17,VWS V14.01,2013-02-19 22:38:00,
2013-02-19 17:43:00,43.0,23.1,29.94,East,101,15.0,15.0,45,0.00,,SKC,0.17,VWS V14.01,2013-02-19 22:43:00,
2013-02-19 17:48:00,42.8,22.4,29.93,East,95,3.0,3.0,44,0.00,,SKC,0.17,VWS V14.01,2013-02-19 22:48:00,
2013-02-19 17:53:00,42.5,22.1,29.94,SW,228,6.0,6.0,44,0.00,,SKC,0.17,VWS V14.01,2013-02-19 22:53:00,
2013-02-19 17:58:00,42.5,22.1,29.94,ESE,119,2.0,10.0,44,0.00,,SKC,0.17,VWS V14.01,2013-02-19 22:58:00,
2013-02-19 18:03:00,42.3,22.0,29.94,WNW,287,2.0,4.0,44,0.00,,SKC,0.17,VWS V14.01,2013-02-19 23:03:00,
2013-02-19 18:08:00,42.1,21.8,29.95,East,79,0.0,5.0,44,0.00,,SKC,0.17,VWS V14.01,2013-02-19 23:08:00,
2013-02-19 18:13:00,41.9,22.1,29.95,SW,225,2.0,4.0,45,0.00,,SKC,0.17,VWS V14.01,2013-02-19 23:13:00,
2013-02-19 18:18:00,41.8,23.1,29.95,SE,127,4.0,4.0,47,0.00,,SKC,0.17,VWS V14.01,2013-02-19 23:18:00,
2013-02-19 18:23:00,41.5,21.8,29.96,North,360,1.0,2.0,45,0.00,,SKC,0.17,VWS V14.01,2013-02-19 23:23:00,
2013-02-19 18:28:00,41.3,21.6,29.96,NE,42,0.0,3.0,45,0.00,,SKC,0.17,VWS V14.01,2013-02-19 23:28:00,
2013-02-19 18:33:00,41.1,21.4,29.96,NE,35,2.0,3.0,45,0.00,,SKC,0.17,VWS V14.01,2013-02-19 23:33:00,
2013-02-19 18:38:00,40.6,23.9,29.97,NE,34,0.0,0.0,51,0.00,,SKC,0.17,VWS V14.01,2013-02-19 23:38:00,
2013-02-19 18:43:00,40.1,21.5,29.97,NE,34,1.0,1.0,47,0.00,,SKC,0.17,VWS V14.01,2013-02-19 23:43:00,
2013-02-19 18:48:00,39.5,18.9,29.97,North,5,10.0,10.0,43,0.00,,SKC,0.17,VWS V14.01,2013-02-19 23:48:00,
2013-02-19 18:53:00,39.8,19.7,29.98,NNW,335,1.0,3.0,44,0.00,,SKC,0.17,VWS V14.01,2013-02-19 23:53:00,
2013-02-19 18:58:00,39.8,19.1,29.98,NE,38,0.0,2.0,43,0.00,,SKC,0.17,VWS V14.01,2013-02-19 23:58:00,
2013-02-19 19:03:00,39.8,16.9,29.98,NNE,30,5.0,5.0,39,0.00,,SKC,0.17,VWS V14.01,2013-02-20 00:03:00,
2013-02-19 19:08:00,39.7,18.5,29.99,NNW,343,0.0,0.0,42,0.00,,SKC,0.17,VWS V14.01,2013-02-20 00:08:00,
2013-02-19 19:12:00,39.4,18.2,29.99,NNW,343,0.0,0.0,42,0.00,,SKC,0.17,VWS V14.01,2013-02-20 00:12:00,
2013-02-19 19:17:00,38.9,18.3,29.99,NNW,343,1.0,1.0,43,0.00,,SKC,0.17,VWS V14.01,2013-02-20 00:17:00,
2013-02-19 19:22:00,38.4,18.9,30.00,NNW,346,0.0,0.0,45,0.00,,SKC,0.17,VWS V14.01,2013-02-20 00:22:00,
2013-02-19 19:27:00,37.6,16.6,30.00,North,350,4.0,5.0,42,0.00,,SKC,0.17,VWS V14.01,2013-02-20 00:27:00,
2013-02-19 19:32:00,37.9,16.9,29.99,North,9,0.0,1.0,42,0.00,,SKC,0.17,VWS V14.01,2013-02-20 00:32:00,
2013-02-19 19:37:00,37.9,17.4,30.00,North,9,0.0,0.0,43,0.00,,SKC,0.17,VWS V14.01,2013-02-20 00:37:00,
2013-02-19 19:42:00,37.9,15.2,30.00,North,355,0.0,2.0,39,0.00,,SKC,0.17,VWS V14.01,2013-02-20 00:42:00,
2013-02-19 19:47:00,38.1,15.9,30.00,NNE,25,1.0,5.0,40,0.00,,SKC,0.17,VWS V14.01,2013-02-20 00:47:00,
2013-02-19 19:52:00,38.3,16.1,30.00,NNE,32,0.0,0.0,40,0.00,,SKC,0.17,VWS V14.01,2013-02-20 00:52:00,
2013-02-19 19:57:00,37.9,17.4,30.01,NNE,32,0.0,0.0,43,0.00,,SKC,0.17,VWS V14.01,2013-02-20 00:57:00,
2013-02-19 20:02:00,37.1,17.7,30.01,NNE,29,1.0,1.0,45,0.00,,SKC,0.17,VWS V14.01,2013-02-20 01:02:00,
2013-02-19 20:07:00,36.7,17.4,30.00,NE,40,8.0,8.0,45,0.00,,SKC,0.17,VWS V14.01,2013-02-20 01:07:00,
2013-02-19 20:12:00,36.7,18.4,30.00,SW,218,0.0,0.0,47,0.00,,SKC,0.17,VWS V14.01,2013-02-20 01:12:00,
2013-02-19 20:17:00,36.2,18.4,30.00,SW,219,0.0,0.0,48,0.00,,SKC,0.17,VWS V14.01,2013-02-20 01:17:00,
2013-02-19 20:22:00,35.7,17.5,30.00,SSW,201,8.0,8.0,47,0.00,,SKC,0.17,VWS V14.01,2013-02-20 01:22:00,
2013-02-19 20:27:00,36.4,16.0,30.01,North,355,0.0,3.0,43,0.00,,SKC,0.17,VWS V14.01,2013-02-20 01:27:00,
2013-02-19 20:32:00,37.0,16.6,30.01,NNE,26,0.0,0.0,43,0.00,,SKC,0.17,VWS V14.01,2013-02-20 01:32:00,
2013-02-19 20:37:00,37.0,16.6,30.01,ESE,117,1.0,5.0,43,0.00,,SKC,0.17,VWS V14.01,2013-02-20 01:37:00,
2013-02-19 20:42:00,36.9,17.0,30.01,West,264,6.0,6.0,44,0.00,,SKC,0.17,VWS V14.01,2013-02-20 01:42:00,
2013-02-19 20:47:00,37.1,16.7,30.01,NNW,327,7.0,7.0,43,0.00,,SKC,0.17,VWS V14.01,2013-02-20 01:47:00,
2013-02-19 20:52:00,37.2,16.8,30.01,NNE,17,1.0,1.0,43,0.00,,SKC,0.17,VWS V14.01,2013-02-20 01:52:00,
2013-02-19 20:57:00,37.0,16.6,30.01,NNW,327,0.0,0.0,43,0.00,,SKC,0.17,VWS V14.01,2013-02-20 01:57:00,
2013-02-19 21:02:00,36.8,17.0,30.02,North,360,0.0,0.0,44,0.00,,SKC,0.17,VWS V14.01,2013-02-20 02:02:00,
2013-02-19 21:07:00,36.5,16.7,30.02,NE,46,3.0,3.0,44,0.00,,SKC,0.17,VWS V14.01,2013-02-20 02:07:00,
2013-02-19 21:12:00,36.6,16.2,30.02,ENE,60,5.0,5.0,43,0.00,,SKC,0.17,VWS V14.01,2013-02-20 02:12:00,
2013-02-19 21:17:00,36.4,16.6,30.02,SW,232,2.0,3.0,44,0.00,,SKC,0.17,VWS V14.01,2013-02-20 02:17:00,
2013-02-19 21:22:00,36.3,16.5,30.02,NNE,17,3.0,3.0,44,0.00,,SKC,0.17,VWS V14.01,2013-02-20 02:22:00,
2013-02-19 21:27:00,36.2,16.4,30.02,NNE,20,1.0,3.0,44,0.00,,SKC,0.17,VWS V14.01,2013-02-20 02:27:00,
2013-02-19 21:32:00,36.0,15.7,30.03,North,355,0.0,1.0,43,0.00,,SKC,0.17,VWS V14.01,2013-02-20 02:32:00,
2013-02-19 21:37:00,35.9,15.6,30.03,West,261,7.0,10.0,43,0.00,,SKC,0.17,VWS V14.01,2013-02-20 02:37:00,
2013-02-19 21:42:00,36.0,15.7,30.03,North,10,1.0,2.0,43,0.00,,SKC,0.17,VWS V14.01,2013-02-20 02:42:00,
2013-02-19 21:47:00,35.7,15.9,30.03,WSW,244,0.0,4.0,44,0.00,,SKC,0.17,VWS V14.01,2013-02-20 02:47:00,
2013-02-19 21:52:00,35.5,13.6,30.03,NW,321,1.0,2.0,40,0.00,,SKC,0.17,VWS V14.01,2013-02-20 02:52:00,
2013-02-19 21:57:00,35.5,13.6,30.03,NNW,346,2.0,2.0,40,0.00,,SKC,0.17,VWS V14.01,2013-02-20 02:57:00,
2013-02-19 22:02:00,35.4,13.5,30.02,NE,41,1.0,3.0,40,0.00,,SKC,0.17,VWS V14.01,2013-02-20 03:02:00,
2013-02-19 22:07:00,35.2,13.3,30.02,NE,51,0.0,3.0,40,0.00,,SKC,0.17,VWS V14.01,2013-02-20 03:07:00,
2013-02-19 22:12:00,34.9,14.1,30.02,NE,51,2.0,2.0,42,0.00,,SKC,0.17,VWS V14.01,2013-02-20 03:12:00,
2013-02-19 22:17:00,33.6,16.0,30.03,NE,49,0.0,0.0,48,0.00,,SKC,0.17,VWS V14.01,2013-02-20 03:17:00,
2013-02-19 22:22:00,32.8,15.8,30.03,NE,49,0.0,0.0,49,0.00,,SKC,0.17,VWS V14.01,2013-02-20 03:22:00,
2013-02-19 22:27:00,32.2,16.1,30.03,NE,49,0.0,0.0,51,0.00,,SKC,0.17,VWS V14.01,2013-02-20 03:27:00,
2013-02-19 22:32:00,31.7,17.0,30.03,NE,49,1.0,1.0,54,0.00,,SKC,0.17,VWS V14.01,2013-02-20 03:32:00,
2013-02-19 22:37:00,31.4,16.3,30.03,NE,53,3.0,5.0,53,0.00,,SKC,0.17,VWS V14.01,2013-02-20 03:37:00,
2013-02-19 22:42:00,32.0,13.1,30.03,NE,52,2.0,3.0,45,0.00,,SKC,0.17,VWS V14.01,2013-02-20 03:42:00,
2013-02-19 22:47:00,31.9,15.4,30.03,NE,52,0.0,0.0,50,0.00,,SKC,0.17,VWS V14.01,2013-02-20 03:47:00,
2013-02-19 22:52:00,31.6,14.6,30.03,NE,52,0.0,0.0,49,0.00,,SKC,0.17,VWS V14.01,2013-02-20 03:52:00,
2013-02-19 22:57:00,31.3,12.9,30.04,NE,52,0.0,0.0,46,0.00,,SKC,0.17,VWS V14.01,2013-02-20 03:57:00,
2013-02-19 23:02:00,30.9,13.5,30.04,NE,52,0.0,0.0,48,0.00,,SKC,0.17,VWS V14.01,2013-02-20 04:02:00,
2013-02-19 23:07:00,30.9,14.5,30.04,NE,52,1.0,2.0,50,0.00,,SKC,0.17,VWS V14.01,2013-02-20 04:07:00,
2013-02-19 23:12:00,30.8,14.8,30.04,NE,52,1.0,1.0,51,0.00,,SKC,0.17,VWS V14.01,2013-02-20 04:12:00,
2013-02-19 23:17:00,30.9,14.0,30.04,NE,51,2.0,3.0,49,0.00,,SKC,0.17,VWS V14.01,2013-02-20 04:17:00,
2013-02-19 23:22:00,31.0,13.6,30.04,NE,51,1.0,1.0,48,0.00,,SKC,0.17,VWS V14.01,2013-02-20 04:22:00,
2013-02-19 23:27:00,30.8,13.0,30.04,NE,51,0.0,0.0,47,0.00,,SKC,0.17,VWS V14.01,2013-02-20 04:27:00,
2013-02-19 23:32:00,30.5,12.2,30.04,NNW,342,2.0,2.0,46,0.00,,SKC,0.17,VWS V14.01,2013-02-20 04:32:00,
2013-02-19 23:37:00,31.0,12.7,30.05,WNW,300,3.0,5.0,46,0.00,,SKC,0.17,VWS V14.01,2013-02-20 04:37:00,
2013-02-19 23:42:00,31.7,12.8,30.05,WNW,296,2.0,2.0,45,0.00,,SKC,0.17,VWS V14.01,2013-02-20 04:42:00,
2013-02-19 23:47:00,32.1,12.1,30.05,NE,34,2.0,2.0,43,0.00,,SKC,0.17,VWS V14.01,2013-02-20 04:47:00,
2013-02-19 23:52:00,32.3,12.8,30.05,NE,34,0.0,0.0,44,0.00,,SKC,0.17,VWS V14.01,2013-02-20 04:52:00,
2013-02-19 23:57:00,32.1,13.7,30.06,NE,34,2.0,2.0,46,0.00,,SKC,0.17,VWS V14.01,2013-02-20 04:57:00,